createdAt,value
2023-05-10T00:09:49.572Z,18.18
2023-05-10T00:19:56.342Z,18.18
2023-05-10T00:30:02.691Z,18.20
2023-05-10T00:40:09.589Z,18.18
2023-05-10T00:50:17.141Z,18.17
2023-05-10T01:00:24.561Z,18.17
2023-05-10T01:10:32.280Z,18.17
2023-05-10T01:20:38.832Z,18.17
2023-05-10T01:30:45.919Z,18.15
2023-05-10T01:40:53.222Z,18.15
2023-05-10T01:51:00.323Z,18.17
2023-05-10T02:01:07.984Z,18.17
2023-05-10T02:11:15.324Z,18.14
2023-05-10T02:21:22.331Z,18.14
2023-05-10T02:31:29.191Z,18.14
2023-05-10T02:41:36.468Z,18.12
2023-05-10T02:51:43.266Z,18.12
2023-05-10T03:01:50.407Z,18.12
2023-05-10T03:11:57.797Z,18.09
2023-05-10T03:22:05.020Z,18.08
2023-05-10T03:32:12.671Z,18.09
2023-05-10T03:42:19.730Z,18.08
2023-05-10T03:52:26.759Z,18.09
2023-05-10T04:02:33.596Z,18.09
2023-05-10T04:12:40.797Z,18.07
2023-05-10T04:22:47.875Z,18.05
2023-05-10T04:32:54.537Z,18.05
2023-05-10T04:43:01.640Z,18.08
2023-05-10T04:53:08.938Z,18.14
2023-05-10T05:03:15.997Z,18.27
2023-05-10T05:13:22.893Z,18.27
2023-05-10T05:23:29.660Z,18.40
2023-05-10T05:33:37.005Z,18.55
2023-05-10T05:43:44.521Z,18.88
2023-05-10T05:53:51.006Z,18.88
2023-05-10T06:03:58.359Z,19.02
2023-05-10T06:14:05.291Z,19.12
2023-05-10T06:24:12.577Z,19.24
2023-05-10T06:34:19.650Z,19.38
2023-05-10T06:44:26.243Z,19.38
2023-05-10T06:54:33.503Z,19.46
2023-05-10T07:04:40.470Z,19.56
2023-05-10T07:14:47.390Z,19.66
2023-05-10T07:24:55.007Z,19.91
2023-05-10T07:35:02.631Z,20.03
2023-05-10T07:45:09.599Z,20.10
2023-05-10T07:55:18.192Z,20.15
2023-05-10T08:05:25.539Z,20.15
2023-05-10T08:15:32.786Z,20.16
2023-05-10T08:25:39.885Z,19.86
2023-05-10T08:35:46.940Z,19.86
2023-05-10T08:45:53.730Z,19.66
2023-05-10T08:56:00.642Z,19.49
2023-05-10T09:06:07.692Z,19.42
2023-05-10T09:26:27.239Z,19.23
2023-05-10T09:36:33.917Z,19.17
2023-05-10T09:46:40.297Z,19.01
2023-05-10T09:56:47.234Z,19.01
2023-05-10T10:06:54.045Z,18.95
2023-05-10T10:17:08.108Z,18.86
2023-05-10T10:27:13.395Z,18.84
2023-05-10T10:37:20.540Z,18.83
2023-05-10T10:47:27.559Z,18.81
2023-05-10T10:57:34.527Z,18.80
2023-05-10T11:07:41.292Z,18.80
2023-05-10T11:17:48.576Z,18.83
2023-05-10T11:27:55.370Z,18.84
2023-05-10T11:38:03.610Z,18.95
2023-05-10T11:48:11.046Z,18.95
2023-05-10T11:58:18.542Z,18.98
2023-05-10T12:08:25.972Z,18.98
2023-05-10T12:18:32.630Z,19.02
2023-05-10T12:28:39.594Z,19.05
2023-05-10T12:38:46.886Z,19.12
2023-05-10T12:49:03.265Z,19.12
2023-05-10T12:59:05.078Z,19.12
2023-05-10T13:09:12.221Z,19.14
2023-05-10T13:19:19.194Z,19.17
2023-05-10T13:29:25.972Z,19.20
2023-05-10T13:39:33.709Z,19.23
2023-05-10T13:49:40.288Z,19.23
2023-05-10T13:59:47.603Z,19.25
2023-05-10T14:09:54.204Z,19.25
2023-05-10T14:20:01.672Z,19.29
2023-05-10T14:30:08.352Z,19.29
2023-05-10T14:40:15.669Z,19.27
2023-05-10T14:50:35.993Z,19.29
2023-05-10T15:00:34.512Z,19.29
2023-05-10T15:10:41.665Z,19.29
2023-05-10T15:20:48.514Z,19.29
2023-05-10T15:30:55.997Z,19.29
2023-05-10T15:41:04.142Z,19.27
2023-05-10T15:51:11.159Z,19.27
2023-05-10T16:01:18.032Z,19.27
2023-05-10T16:11:25.117Z,19.25
2023-05-10T16:21:32.306Z,19.23
2023-05-10T16:31:38.920Z,19.23
2023-05-10T16:41:45.905Z,19.20
2023-05-10T16:51:53.363Z,19.18
2023-05-10T17:02:00.279Z,19.18
2023-05-10T17:12:07.213Z,19.12
2023-05-10T17:22:14.480Z,19.12
2023-05-10T17:32:21.235Z,19.12
2023-05-10T17:42:28.225Z,19.08
2023-05-10T17:52:35.246Z,19.08
2023-05-10T18:02:42.401Z,19.01
2023-05-10T18:12:49.594Z,18.98
2023-05-10T18:22:56.465Z,18.98
2023-05-10T18:33:05.503Z,18.88
2023-05-10T18:43:12.559Z,18.88
2023-05-10T18:53:19.603Z,18.86
2023-05-10T19:03:26.546Z,18.86
2023-05-10T19:13:33.953Z,18.81
2023-05-10T19:23:41.000Z,18.78
2023-05-10T19:33:47.853Z,18.78
2023-05-10T19:43:54.781Z,18.78
2023-05-10T19:54:02.123Z,18.75
2023-05-10T20:04:09.290Z,18.76
2023-05-10T20:14:15.961Z,18.76
2023-05-10T20:24:22.842Z,18.75
2023-05-10T20:34:30.502Z,18.71
2023-05-10T20:44:37.931Z,18.71
2023-05-10T20:54:44.845Z,18.71
2023-05-10T21:04:52.096Z,18.70
2023-05-10T21:14:58.945Z,18.70
2023-05-10T21:25:06.615Z,18.71
2023-05-10T21:35:13.334Z,18.70
2023-05-10T21:45:20.661Z,18.69
2023-05-10T21:55:27.297Z,18.69
2023-05-10T22:05:34.621Z,18.73
2023-05-10T22:15:41.428Z,18.71
2023-05-10T22:25:48.227Z,18.71
2023-05-10T22:35:54.156Z,18.71
2023-05-10T22:46:00.238Z,18.70
2023-05-10T22:56:08.022Z,18.68
2023-05-10T23:06:14.513Z,18.70
2023-05-10T23:16:21.887Z,18.70
2023-05-10T23:26:29.081Z,18.69
2023-05-10T23:36:35.634Z,18.69
2023-05-10T23:46:42.714Z,18.71
2023-05-10T23:56:49.157Z,18.71
